Denver, Colorado
Traffic Map
Current Weather Conditions
Denver, Colorado
Scattered Clouds
Scattered Clouds
17°
Feels Like: 7°
Wind Chill: Ceiling: Unl
Heat Index: 17° Visibility: 10mi
Dew Point: Wind: 8mph
Humidity: 57% Direction: 180° (S)
Pressure: 29.78in Gusts: 0mph
Raw Report DataKBKF 260558Z 18007KT 10SM FEW080 SCT200 M08/M15 A2978 RMK AO2A SLP111 T10811152 11001 21081 50002
Traffic Incident Summary
Active as of:
Severity:
Category:
InformationThere was an issue retrieving the traffic information for this location. Please try a different location or try again shortly.
Advertisements
Track Severe Weather on mobile